Time;durP1;ratioP1;P1;durP2;ratioP2;P2;SDS_P1;SDS_P2;PMS_P1;PMS_P2;Temp;Humidity;BMP_temperature;BMP_pressure;BME280_temperature;BME280_humidity;BME280_pressure;Samples;Min_cycle;Max_cycle;Signal;HPM_P1;HPM_P2
2022/09/16 04:38:45;;;;;;;8.15;5.82;;;;;;;14.74;100.00;99666.16;6639079;26;20047;-88
2022/09/16 04:41:48;;;;;;;10.30;6.80;;;;;;;14.81;100.00;99655.28;6637939;26;34853;-90
2022/09/16 04:48:55;;;;;;;10.63;6.57;;;;;;;14.83;100.00;99634.19;6663741;26;20032;-88
2022/09/16 04:52:06;;;;;;;7.80;6.05;;;;;;;14.82;100.00;99644.22;6654538;26;34842;-88
2022/09/16 04:55:08;;;;;;;11.40;6.60;;;;;;;14.82;100.00;99644.22;6664751;26;35170;-88
2022/09/16 04:58:14;;;;;;;8.88;6.12;;;;;;;14.86;100.00;99645.44;6667492;26;34412;-89
2022/09/16 05:01:19;;;;;;;9.95;6.28;;;;;;;14.90;100.00;99645.81;6664590;26;33819;-88
2022/09/16 05:04:23;;;;;;;10.13;5.85;;;;;;;15.00;100.00;99650.72;6637400;26;34558;-89
2022/09/16 05:07:28;;;;;;;8.38;6.00;;;;;;;15.02;100.00;99652.13;6636948;26;33139;-90
2022/09/16 05:10:31;;;;;;;7.65;5.72;;;;;;;15.08;100.00;99653.94;6626454;26;32439;-89
2022/09/16 05:13:35;;;;;;;9.10;5.60;;;;;;;15.16;100.00;99648.25;6659944;26;35398;-89
2022/09/16 05:16:37;;;;;;;12.77;6.50;;;;;;;15.22;100.00;99651.09;6656734;26;33632;-88
2022/09/16 05:19:40;;;;;;;8.40;6.18;;;;;;;15.28;100.00;99644.78;6637045;26;32701;-87
2022/09/16 05:22:48;;;;;;;9.85;6.12;;;;;;;15.28;100.00;99656.44;6664919;26;34088;-89
2022/09/16 05:25:52;;;;;;;8.65;6.70;;;;;;;15.38;100.00;99661.31;6656649;26;35459;-88
2022/09/16 05:28:55;;;;;;;10.23;6.00;;;;;;;15.36;100.00;99656.16;6663737;26;34704;-89
2022/09/16 05:31:57;;;;;;;10.75;6.15;;;;;;;15.36;100.00;99653.44;6663426;26;34156;-89
2022/09/16 05:35:00;;;;;;;9.70;6.00;;;;;;;15.40;100.00;99662.75;6658369;26;34668;-88
2022/09/16 05:46:21;;;;;;;8.48;5.72;;;;;;;15.50;100.00;99669.53;6597839;26;20396;-89
2022/09/16 05:49:25;;;;;;;9.75;5.85;;;;;;;15.60;100.00;99648.13;6588582;26;33536;-90
2022/09/16 05:52:27;;;;;;;8.75;6.00;;;;;;;15.65;100.00;99665.37;6602875;26;32850;-90
2022/09/16 05:55:30;;;;;;;9.10;5.60;;;;;;;15.73;100.00;99666.16;6649624;26;34334;-90
2022/09/16 05:58:34;;;;;;;10.20;6.20;;;;;;;15.65;100.00;99672.72;6657830;26;34138;-90
2022/09/16 06:01:37;;;;;;;9.13;5.90;;;;;;;15.71;100.00;99662.84;6660327;26;34228;-90
2022/09/16 06:04:41;;;;;;;8.82;5.60;;;;;;;15.78;100.00;99658.16;6656918;26;34082;-89
2022/09/16 06:07:43;;;;;;;7.32;5.37;;;;;;;15.91;100.00;99657.94;6643883;26;32487;-88
2022/09/16 06:14:48;;;;;;;8.68;5.62;;;;;;;16.07;100.00;99665.47;6660039;26;20078;-88
2022/09/16 06:17:51;;;;;;;8.02;5.57;;;;;;;15.98;100.00;99664.13;6637740;26;33722;-88
2022/09/16 06:20:55;;;;;;;7.50;4.90;;;;;;;16.07;100.00;99661.94;6656667;26;34049;-89
2022/09/16 06:23:58;;;;;;;10.00;5.90;;;;;;;16.20;99.84;99669.84;6664531;26;33883;-88
2022/09/16 06:27:00;;;;;;;10.63;5.80;;;;;;;16.34;98.53;99675.91;6664363;26;34921;-88
2022/09/16 06:30:04;;;;;;;5.97;5.20;;;;;;;16.29;98.99;99675.78;6664891;26;34877;-89
2022/09/16 06:33:08;;;;;;;10.63;5.80;;;;;;;16.35;98.35;99680.31;6666107;26;34958;-89
2022/09/16 06:36:13;;;;;;;9.75;5.37;;;;;;;16.55;97.32;99679.97;6670979;26;34300;-89
2022/09/16 06:39:17;;;;;;;9.07;5.18;;;;;;;16.41;96.94;99664.94;6668955;26;34415;-88
2022/09/16 06:42:19;;;;;;;11.63;5.97;;;;;;;16.45;97.54;99656.09;6665062;26;34003;-89
2022/09/16 06:45:24;;;;;;;7.28;5.12;;;;;;;16.50;97.10;99655.41;6665424;26;34236;-89
2022/09/16 06:48:27;;;;;;;10.60;5.82;;;;;;;16.67;95.90;99664.53;6671848;26;33733;-89
2022/09/16 06:51:30;;;;;;;8.82;5.47;;;;;;;16.71;96.13;99667.59;6670281;26;33854;-89
2022/09/16 06:54:33;;;;;;;9.07;5.60;;;;;;;16.62;94.25;99667.13;6661797;26;34876;-88
2022/09/16 06:57:35;;;;;;;9.57;5.40;;;;;;;16.74;94.21;99653.53;6644345;26;32750;-89
2022/09/16 07:00:38;;;;;;;9.05;5.65;;;;;;;16.87;92.71;99661.47;6675197;26;33746;-89
2022/09/16 07:03:46;;;;;;;9.15;4.78;;;;;;;17.05;92.11;99656.97;6650194;26;33069;-89
2022/09/16 07:06:50;;;;;;;8.93;5.33;;;;;;;17.06;92.00;99654.03;6657651;26;34138;-88
2022/09/16 07:10:10;;;;;;;8.13;4.82;;;;;;;17.08;90.75;99662.78;6635901;26;32859;-88
2022/09/16 07:13:13;;;;;;;7.43;4.50;;;;;;;17.06;89.67;99666.81;6656839;26;34224;-88
2022/09/16 07:16:21;;;;;;;6.93;4.85;;;;;;;17.08;88.12;99673.66;6642624;26;33912;-88
2022/09/16 07:19:26;;;;;;;8.77;4.95;;;;;;;16.97;88.49;99671.78;6663814;26;34304;-88
2022/09/16 07:22:30;;;;;;;6.97;4.70;;;;;;;16.99;89.23;99670.47;6664018;26;35591;-88
2022/09/16 07:25:34;;;;;;;8.10;4.97;;;;;;;17.13;89.07;99681.09;6656675;26;34503;-91
2022/09/16 07:28:45;;;;;;;6.80;4.55;;;;;;;17.23;87.50;99689.50;6646954;26;34991;-88
2022/09/16 07:36:18;;;;;;;7.82;4.40;;;;;;;17.35;85.84;99698.47;6661763;26;20035;-88
2022/09/16 07:39:21;;;;;;;5.95;4.00;;;;;;;17.49;85.88;99695.47;6646440;26;32883;-88
2022/09/16 07:42:28;;;;;;;5.68;4.00;;;;;;;17.66;83.24;99689.03;6666160;26;35441;-88
2022/09/16 07:45:31;;;;;;;5.95;4.10;;;;;;;17.66;83.57;99690.94;6664877;26;34037;-89
2022/09/16 07:48:34;;;;;;;5.95;4.20;;;;;;;17.68;82.78;99694.25;6646433;26;32317;-90
2022/09/16 07:51:37;;;;;;;5.97;4.20;;;;;;;17.50;83.86;99700.69;6664142;26;34195;-88
2022/09/16 07:54:40;;;;;;;7.28;4.55;;;;;;;17.49;82.79;99707.22;6659233;26;170744;-88
2022/09/16 07:57:43;;;;;;;9.52;4.28;;;;;;;17.81;82.42;99702.19;6646506;26;32339;-88
2022/09/16 08:00:48;;;;;;;5.10;3.75;;;;;;;17.81;82.38;99699.47;6665862;26;34026;-89
2022/09/16 08:03:51;;;;;;;5.82;4.43;;;;;;;18.01;81.40;99706.34;6665618;26;34711;-89
2022/09/16 08:06:53;;;;;;;6.40;3.80;;;;;;;17.97;82.02;99706.03;6668321;26;34609;-89
2022/09/16 08:09:56;;;;;;;5.80;4.25;;;;;;;18.07;82.12;99719.00;6641550;26;34083;-89
2022/09/16 08:12:59;;;;;;;5.05;3.70;;;;;;;18.14;81.00;99719.69;6673373;26;35417;-89
2022/09/16 08:16:10;;;;;;;4.90;4.15;;;;;;;18.12;80.62;99717.19;6674925;26;34320;-92
2022/09/16 08:19:13;;;;;;;4.47;3.75;;;;;;;18.34;78.41;99719.25;6664363;26;35100;-90
2022/09/16 08:22:18;;;;;;;5.15;3.47;;;;;;;18.41;79.94;99719.09;6675322;26;35545;-88
2022/09/16 08:25:21;;;;;;;5.10;3.87;;;;;;;18.19;77.17;99719.75;6681872;26;33994;-90
2022/09/16 08:28:25;;;;;;;4.97;3.85;;;;;;;18.15;80.94;99729.50;6681189;26;34894;-90
2022/09/16 08:31:33;;;;;;;6.20;3.60;;;;;;;18.13;79.42;99727.03;6681234;26;36339;-90
2022/09/16 08:35:13;;;;;;;5.07;3.85;;;;;;;18.39;79.61;99721.22;6645838;26;20029;-88
2022/09/16 08:38:45;;;;;;;4.78;3.70;;;;;;;18.62;76.21;99726.53;6632092;26;34111;-88
2022/09/16 08:42:08;;;;;;;7.90;3.65;;;;;;;18.50;77.40;99720.34;6665794;26;34773;-88
2022/09/16 08:45:51;;;;;;;4.18;3.12;;;;;;;18.44;74.59;99718.59;6644865;26;34946;-88
2022/09/16 08:53:34;;;;;;;5.12;3.50;;;;;;;18.13;76.40;99710.69;6563656;27;20087;-90
2022/09/16 08:56:43;;;;;;;5.60;3.35;;;;;;;17.90;75.08;99716.22;6584371;26;34066;-88
2022/09/16 09:00:00;;;;;;;11.57;3.50;;;;;;;17.68;76.87;99714.13;6613135;27;33668;-91
2022/09/16 09:03:33;;;;;;;5.37;3.30;;;;;;;17.76;76.32;99720.28;6594252;27;33293;-91
2022/09/16 09:07:17;;;;;;;5.90;3.40;;;;;;;17.71;77.38;99731.06;6617874;27;34314;-91
2022/09/16 09:10:36;;;;;;;4.05;3.30;;;;;;;17.81;76.71;99729.41;6612078;26;34900;-91
2022/09/16 09:13:54;;;;;;;5.50;3.25;;;;;;;17.84;77.47;99733.53;6621165;26;33928;-90
2022/09/16 09:17:14;;;;;;;4.60;3.10;;;;;;;17.79;77.24;99734.25;6642549;26;34505;-91
2022/09/16 09:20:48;;;;;;;7.03;4.00;;;;;;;17.80;75.81;99714.13;6646925;26;34913;-90
2022/09/16 09:23:51;;;;;;;5.37;3.30;;;;;;;17.80;75.25;99725.00;6617266;26;33856;-91
2022/09/16 09:27:14;;;;;;;8.77;3.33;;;;;;;17.62;75.30;99711.53;6635679;26;34567;-91
2022/09/16 09:30:21;;;;;;;15.57;4.65;;;;;;;17.76;75.09;99726.53;6615052;26;32769;-91
2022/09/16 09:33:39;;;;;;;8.60;3.50;;;;;;;17.68;73.73;99724.19;6615250;26;32695;-91
2022/09/16 09:36:55;;;;;;;5.05;2.90;;;;;;;17.56;74.64;99728.84;6629210;26;32600;-89
2022/09/16 09:44:27;;;;;;;7.07;3.42;;;;;;;17.75;74.44;99710.44;6593061;26;36381;-89
2022/09/16 09:47:40;;;;;;;8.30;3.72;;;;;;;18.06;73.11;99725.53;6582763;26;33740;-91
2022/09/16 09:50:46;;;;;;;3.42;2.85;;;;;;;17.92;73.10;99726.87;6615057;26;32491;-88
2022/09/16 09:58:15;;;;;;;10.48;3.05;;;;;;;18.26;70.36;99723.19;6657950;26;20068;-88
2022/09/16 10:05:27;;;;;;;3.62;2.55;;;;;;;18.71;68.78;99711.41;6621718;26;20029;-90
2022/09/16 10:08:45;;;;;;;4.20;2.70;;;;;;;18.95;69.12;99706.66;6623769;26;33797;-88
2022/09/16 10:11:54;;;;;;;3.87;2.25;;;;;;;19.06;65.03;99691.25;6657556;26;33686;-89
2022/09/16 10:26:39;;;;;;;4.62;2.42;;;;;;;18.77;62.75;99705.00;6634372;26;34158;-88
2022/09/16 10:30:20;;;;;;;2.22;2.03;;;;;;;18.75;63.92;99699.00;6645697;26;32729;-91
